createdAt,value
2019-01-17T00:01:23.408Z,5.30
2019-01-17T00:03:53.646Z,5.30
2019-01-17T00:06:35.951Z,5.30
2019-01-17T00:09:08.401Z,5.20
2019-01-17T00:11:38.549Z,5.30
2019-01-17T00:14:14.441Z,5.30
2019-01-17T00:16:50.441Z,5.20
2019-01-17T00:19:33.760Z,5.30
2019-01-17T00:22:15.818Z,5.30
2019-01-17T00:24:45.961Z,5.30
2019-01-17T00:27:28.285Z,5.20
2019-01-17T00:30:04.185Z,5.20
2019-01-17T00:32:46.016Z,5.20
2019-01-17T00:35:25.148Z,5.20
2019-01-17T00:37:55.353Z,5.20
2019-01-17T00:40:25.501Z,5.20
2019-01-17T00:42:58.348Z,5.20
2019-01-17T00:45:33.961Z,5.20
2019-01-17T00:48:07.045Z,5.20
2019-01-17T00:50:37.194Z,5.20
2019-01-17T00:53:23.564Z,5.20
2019-01-17T00:55:56.448Z,5.20
2019-01-17T00:58:42.337Z,5.20
2019-01-17T01:01:15.212Z,5.20
2019-01-17T01:03:45.420Z,5.20
2019-01-17T01:06:15.714Z,5.20
2019-01-17T01:08:51.933Z,5.20
2019-01-17T01:11:24.784Z,5.20
2019-01-17T01:13:55.019Z,5.20
2019-01-17T01:16:37.370Z,5.20
2019-01-17T01:19:07.566Z,5.20
2019-01-17T01:21:37.712Z,5.20
2019-01-17T01:24:23.842Z,5.10
2019-01-17T01:26:59.858Z,5.20
2019-01-17T01:29:33.021Z,5.20
2019-01-17T01:32:03.174Z,5.20
2019-01-17T01:34:38.779Z,5.20
2019-01-17T01:37:25.050Z,5.20
2019-01-17T01:40:01.069Z,5.20
2019-01-17T01:42:48.880Z,5.20
2019-01-17T01:45:24.849Z,5.20
2019-01-17T01:47:54.997Z,5.20
2019-01-17T01:50:25.204Z,5.20
2019-01-17T01:52:58.392Z,5.30
2019-01-17T01:55:26.957Z,5.20
2019-01-17T01:57:55.461Z,5.20
2019-01-17T02:00:24.024Z,5.20
2019-01-17T02:02:52.593Z,5.20
2019-01-17T02:05:21.073Z,5.20
2019-01-17T02:07:49.589Z,5.10
2019-01-17T02:10:18.217Z,5.00
2019-01-17T02:12:46.696Z,4.90
2019-01-17T02:15:15.342Z,4.90
2019-01-17T02:17:43.894Z,4.80
2019-01-17T02:20:12.597Z,4.70
2019-01-17T02:22:41.085Z,4.70
2019-01-17T02:25:09.803Z,4.70
2019-01-17T02:27:38.428Z,4.70
2019-01-17T02:30:10.209Z,4.70
2019-01-17T02:32:38.765Z,4.70
2019-01-17T02:35:07.917Z,4.60
2019-01-17T02:37:36.479Z,4.70
2019-01-17T02:40:08.397Z,4.70
2019-01-17T02:42:37.026Z,4.70
2019-01-17T02:45:08.605Z,4.70
2019-01-17T02:47:37.158Z,4.70
2019-01-17T02:50:07.901Z,4.70
2019-01-17T02:52:36.478Z,4.70
2019-01-17T02:55:07.830Z,4.70
2019-01-17T02:57:36.345Z,4.70
2019-01-17T03:00:07.926Z,4.70
2019-01-17T03:02:36.477Z,4.70
2019-01-17T03:05:05.818Z,4.60
2019-01-17T03:07:34.437Z,4.70
2019-01-17T03:10:03.169Z,4.70
2019-01-17T03:12:31.717Z,4.70
2019-01-17T03:15:00.278Z,4.70
2019-01-17T03:17:28.849Z,4.70
2019-01-17T03:19:57.437Z,4.70
2019-01-17T03:22:25.928Z,4.70
2019-01-17T03:24:54.478Z,4.70
2019-01-17T03:27:23.061Z,4.70
2019-01-17T03:29:51.550Z,4.70
2019-01-17T03:32:20.142Z,4.60
2019-01-17T03:34:48.689Z,4.60
2019-01-17T03:37:17.221Z,4.60
2019-01-17T03:39:45.711Z,4.60
2019-01-17T03:42:14.269Z,4.60
2019-01-17T03:44:42.746Z,4.60
2019-01-17T03:47:11.586Z,4.60
2019-01-17T03:49:40.133Z,4.60
2019-01-17T03:52:08.709Z,4.60
2019-01-17T03:54:37.411Z,4.60
2019-01-17T03:57:05.989Z,4.60
2019-01-17T03:59:34.544Z,4.70
2019-01-17T04:02:03.122Z,4.60
2019-01-17T04:04:31.687Z,4.60
2019-01-17T04:07:00.190Z,4.60
2019-01-17T04:09:28.685Z,4.60
2019-01-17T04:11:57.265Z,4.60
2019-01-17T04:14:25.820Z,4.60
2019-01-17T04:16:54.302Z,4.70
2019-01-17T04:19:22.803Z,4.70
2019-01-17T04:21:51.334Z,4.70
2019-01-17T04:24:19.901Z,4.70
2019-01-17T04:26:48.462Z,4.70
2019-01-17T04:29:16.968Z,4.70
2019-01-17T04:31:45.526Z,4.70
2019-01-17T04:34:14.100Z,4.70
2019-01-17T04:36:42.658Z,4.70
2019-01-17T04:39:11.773Z,4.70
2019-01-17T04:41:40.331Z,4.70
2019-01-17T04:44:08.982Z,4.70
2019-01-17T04:46:37.535Z,4.70
2019-01-17T04:49:06.111Z,4.70
2019-01-17T04:51:34.675Z,4.70
2019-01-17T04:54:03.242Z,4.70
2019-01-17T04:56:31.721Z,4.60
2019-01-17T04:59:00.225Z,4.70
2019-01-17T05:01:28.782Z,4.70
2019-01-17T05:03:57.365Z,4.70
2019-01-17T05:06:25.862Z,4.70
2019-01-17T05:08:54.503Z,4.70
2019-01-17T05:11:23.019Z,4.80
2019-01-17T05:13:51.582Z,4.80
2019-01-17T05:16:20.225Z,4.80
2019-01-17T05:18:48.720Z,4.80
2019-01-17T05:21:17.395Z,4.80
2019-01-17T05:23:45.996Z,4.90
2019-01-17T05:26:14.652Z,4.90
2019-01-17T05:28:43.240Z,4.90
2019-01-17T05:31:11.794Z,5.00
2019-01-17T05:33:40.357Z,5.00
2019-01-17T05:36:09.041Z,5.00
2019-01-17T05:38:37.533Z,5.00
2019-01-17T05:41:06.118Z,5.00
2019-01-17T05:43:34.676Z,5.00
2019-01-17T05:46:03.322Z,5.00
2019-01-17T05:48:31.811Z,5.00
2019-01-17T05:51:00.393Z,5.10
2019-01-17T05:53:28.963Z,5.10
2019-01-17T05:55:57.549Z,5.10
2019-01-17T05:58:26.118Z,5.10
2019-01-17T06:00:54.748Z,5.10
2019-01-17T06:03:23.272Z,5.10
2019-01-17T06:05:52.165Z,5.10
2019-01-17T06:08:20.656Z,5.10
2019-01-17T06:10:49.170Z,5.10
2019-01-17T06:13:17.834Z,5.10
2019-01-17T06:15:46.666Z,5.10
2019-01-17T06:18:15.183Z,5.10
2019-01-17T06:20:43.769Z,5.00
2019-01-17T06:23:12.255Z,5.10
2019-01-17T06:25:40.795Z,5.10
2019-01-17T06:28:09.411Z,5.00
2019-01-17T06:30:37.898Z,5.10
2019-01-17T06:33:06.478Z,5.10
2019-01-17T06:35:34.969Z,5.00
2019-01-17T06:38:03.693Z,5.00
2019-01-17T06:40:32.389Z,5.00
2019-01-17T06:43:00.902Z,5.10
2019-01-17T06:45:29.458Z,5.00
2019-01-17T06:47:58.109Z,5.00
2019-01-17T06:50:26.673Z,5.00
2019-01-17T06:52:55.189Z,5.00
2019-01-17T06:55:23.816Z,5.00
2019-01-17T06:57:52.479Z,4.90
2019-01-17T07:00:21.115Z,4.80
2019-01-17T07:02:49.689Z,4.80
2019-01-17T07:05:18.353Z,4.80
2019-01-17T07:07:46.992Z,4.80
2019-01-17T07:10:17.232Z,4.80
2019-01-17T07:12:46.201Z,4.80
2019-01-17T07:15:15.020Z,4.80
2019-01-17T07:17:43.538Z,4.80
2019-01-17T07:20:14.235Z,4.80
2019-01-17T07:22:42.817Z,4.70
2019-01-17T07:25:11.656Z,4.70
2019-01-17T07:27:40.310Z,4.70
2019-01-17T07:30:20.030Z,4.70
2019-01-17T07:32:48.852Z,4.70
2019-01-17T07:35:17.660Z,4.70
2019-01-17T07:37:47.431Z,4.60
2019-01-17T07:40:16.442Z,4.60
2019-01-17T07:42:45.002Z,4.60
2019-01-17T07:45:19.004Z,4.50
2019-01-17T07:47:47.725Z,4.50
2019-01-17T07:50:16.426Z,4.60
2019-01-17T07:52:45.061Z,4.60
2019-01-17T07:55:13.713Z,4.60
2019-01-17T07:57:42.201Z,4.60
2019-01-17T08:00:13.789Z,4.60
2019-01-17T08:02:42.278Z,4.60
2019-01-17T08:05:10.853Z,4.70
2019-01-17T08:07:39.481Z,4.70
2019-01-17T08:10:11.170Z,4.80
2019-01-17T08:12:39.803Z,4.80
2019-01-17T08:15:10.511Z,5.00
2019-01-17T08:17:39.090Z,5.00
2019-01-17T08:20:10.749Z,5.10
2019-01-17T08:22:39.330Z,5.20
2019-01-17T08:25:10.406Z,5.30
2019-01-17T08:27:38.954Z,5.40
2019-01-17T08:30:10.540Z,5.40
2019-01-17T08:32:39.097Z,5.40
2019-01-17T08:35:08.026Z,5.50
2019-01-17T08:37:36.613Z,5.50
2019-01-17T08:40:20.571Z,5.50
2019-01-17T08:42:49.148Z,5.50
2019-01-17T08:45:18.283Z,5.40
2019-01-17T08:47:46.908Z,5.30
2019-01-17T08:50:16.743Z,5.40
2019-01-17T08:52:45.377Z,5.40
2019-01-17T08:55:14.092Z,5.30
2019-01-17T08:57:42.655Z,5.30
2019-01-17T09:00:19.253Z,5.30
2019-01-17T09:02:47.827Z,5.20
2019-01-17T09:05:17.822Z,5.20
2019-01-17T09:07:46.317Z,5.30
2019-01-17T09:10:20.556Z,5.30
2019-01-17T09:12:49.158Z,5.30
2019-01-17T09:15:20.518Z,5.40
2019-01-17T09:17:49.006Z,5.50
2019-01-17T09:20:17.569Z,5.50
2019-01-17T09:22:46.078Z,5.50
2019-01-17T09:25:16.013Z,5.50
2019-01-17T09:27:44.677Z,5.60
2019-01-17T09:30:18.321Z,5.50
2019-01-17T09:32:47.037Z,5.60
2019-01-17T09:35:16.766Z,5.50
2019-01-17T09:37:45.419Z,5.50
2019-01-17T09:40:19.646Z,5.60
2019-01-17T09:42:48.297Z,5.70
2019-01-17T09:45:17.097Z,5.80
2019-01-17T09:47:45.743Z,5.90
2019-01-17T09:50:22.989Z,6.00
2019-01-17T09:52:51.711Z,5.90
2019-01-17T09:55:20.334Z,5.90
2019-01-17T09:57:48.981Z,6.00
2019-01-17T10:00:28.534Z,6.10
2019-01-17T10:02:58.417Z,6.20
2019-01-17T10:05:26.985Z,6.20
2019-01-17T10:07:55.560Z,6.20
2019-01-17T10:10:25.301Z,6.20
2019-01-17T10:12:54.045Z,6.20
2019-01-17T10:15:34.119Z,6.20
2019-01-17T10:18:31.278Z,6.20
2019-01-17T10:21:14.540Z,6.20
2019-01-17T10:23:57.915Z,6.30
2019-01-17T10:26:35.560Z,6.20
2019-01-17T10:29:25.217Z,6.20
2019-01-17T10:31:59.584Z,6.20
2019-01-17T10:34:37.200Z,6.20
2019-01-17T10:37:27.888Z,6.20
2019-01-17T10:40:02.464Z,6.20
2019-01-17T10:42:45.712Z,6.20
2019-01-17T10:45:29.085Z,6.10
2019-01-17T10:48:06.580Z,6.10
2019-01-17T10:50:52.612Z,5.90
2019-01-17T10:53:33.191Z,5.80
2019-01-17T10:56:07.770Z,5.70
2019-01-17T10:58:39.482Z,5.50
2019-01-17T11:01:32.145Z,5.20
2019-01-17T11:04:15.584Z,5.10
2019-01-17T11:06:58.935Z,4.90
2019-01-17T11:09:39.300Z,4.80
2019-01-17T11:12:31.429Z,4.90
2019-01-17T11:15:08.660Z,4.90
2019-01-17T11:17:43.222Z,4.80
2019-01-17T11:20:32.612Z,4.80
2019-01-17T11:23:06.620Z,4.80
2019-01-17T11:25:40.016Z,4.80
2019-01-17T11:28:26.646Z,4.80
2019-01-17T11:31:14.822Z,4.80
2019-01-17T11:33:52.097Z,4.90
2019-01-17T11:36:57.861Z,4.80
2019-01-17T11:39:44.170Z,4.70
2019-01-17T11:42:21.381Z,4.80
2019-01-17T11:45:10.976Z,4.70
2019-01-17T11:47:42.603Z,4.60
2019-01-17T11:50:30.436Z,4.50
2019-01-17T11:53:04.793Z,4.40
2019-01-17T11:55:36.359Z,4.40
2019-01-17T11:58:22.704Z,4.50
2019-01-17T12:00:54.277Z,4.40
2019-01-17T12:03:28.361Z,4.30
2019-01-17T12:05:56.870Z,4.10
2019-01-17T12:08:25.434Z,3.90
2019-01-17T12:10:53.921Z,3.90
2019-01-17T12:13:22.425Z,3.90
2019-01-17T12:15:50.989Z,3.90
2019-01-17T12:18:19.497Z,3.90
2019-01-17T12:20:48.061Z,3.90
2019-01-17T12:23:16.642Z,4.00
2019-01-17T12:25:45.209Z,4.00
2019-01-17T12:28:13.706Z,3.90
2019-01-17T12:30:42.195Z,4.00
2019-01-17T12:33:10.770Z,4.10
2019-01-17T12:35:39.260Z,4.00
2019-01-17T12:38:07.833Z,4.00
2019-01-17T12:40:36.313Z,4.00
2019-01-17T12:43:05.369Z,4.00
2019-01-17T12:45:33.937Z,4.00
2019-01-17T12:48:02.513Z,4.00
2019-01-17T12:50:31.886Z,4.00
2019-01-17T12:53:00.489Z,4.10
2019-01-17T12:55:29.120Z,4.10
2019-01-17T12:57:57.624Z,4.20
2019-01-17T13:00:26.190Z,4.10
2019-01-17T13:02:54.839Z,4.10
2019-01-17T13:05:23.401Z,4.10
2019-01-17T13:07:52.554Z,4.10
2019-01-17T13:10:21.995Z,4.10
2019-01-17T13:12:50.625Z,4.20
2019-01-17T13:15:19.256Z,4.20
2019-01-17T13:17:47.816Z,4.10
2019-01-17T13:20:16.665Z,4.00
2019-01-17T13:22:45.307Z,4.10
2019-01-17T13:25:16.900Z,4.10
2019-01-17T13:27:45.459Z,4.10
2019-01-17T13:30:16.738Z,4.10
2019-01-17T13:32:45.299Z,4.10
2019-01-17T13:35:14.013Z,4.00
2019-01-17T13:37:42.639Z,4.00
2019-01-17T13:40:16.734Z,3.90
2019-01-17T13:42:45.228Z,3.90
2019-01-17T13:45:20.957Z,3.90
2019-01-17T13:47:50.765Z,4.00
2019-01-17T13:50:19.605Z,4.00
2019-01-17T13:52:48.237Z,4.00
2019-01-17T13:55:17.544Z,4.10
2019-01-17T13:57:46.030Z,4.10
2019-01-17T14:00:25.319Z,4.00
2019-01-17T14:02:54.313Z,4.00
2019-01-17T14:05:22.876Z,3.90
2019-01-17T14:07:52.558Z,3.80
2019-01-17T14:10:21.269Z,3.90
2019-01-17T14:12:49.827Z,3.90
2019-01-17T14:15:24.558Z,3.80
2019-01-17T14:17:54.285Z,3.70
2019-01-17T14:20:22.854Z,3.80
2019-01-17T14:22:51.340Z,3.80
2019-01-17T14:25:19.854Z,3.80
2019-01-17T14:27:48.329Z,3.80
2019-01-17T14:30:26.420Z,3.90
2019-01-17T14:32:56.924Z,4.00
2019-01-17T14:35:25.477Z,3.90
2019-01-17T14:37:55.298Z,4.20
2019-01-17T14:40:23.842Z,4.30
2019-01-17T14:42:52.409Z,4.40
2019-01-17T14:45:22.037Z,4.40
2019-01-17T14:47:51.676Z,4.30
2019-01-17T14:50:28.900Z,4.20
2019-01-17T14:52:57.417Z,4.20
2019-01-17T14:55:25.961Z,4.10
2019-01-17T14:57:54.465Z,4.00
2019-01-17T15:00:28.505Z,3.90
2019-01-17T15:02:57.137Z,3.90
2019-01-17T15:05:25.861Z,3.80
2019-01-17T15:07:55.984Z,3.80
2019-01-17T15:10:30.193Z,3.90
2019-01-17T15:12:58.789Z,3.90
2019-01-17T15:15:27.420Z,3.70
2019-01-17T15:17:57.414Z,3.40
2019-01-17T15:20:25.965Z,3.20
2019-01-17T15:22:54.473Z,2.90
2019-01-17T15:25:22.961Z,2.90
2019-01-17T15:27:51.683Z,2.80
2019-01-17T15:30:24.973Z,2.80
2019-01-17T15:32:54.022Z,2.80
2019-01-17T15:35:22.554Z,2.90
2019-01-17T15:37:51.225Z,2.90
2019-01-17T15:40:22.421Z,3.10
2019-01-17T15:42:51.130Z,3.10
2019-01-17T15:45:19.848Z,3.10
2019-01-17T15:47:48.489Z,3.10
2019-01-17T15:50:18.616Z,3.10
2019-01-17T15:52:47.242Z,3.10
2019-01-17T15:55:16.584Z,2.90
2019-01-17T15:57:45.292Z,2.90
2019-01-17T16:00:16.794Z,2.80
2019-01-17T16:02:45.618Z,2.70
2019-01-17T16:05:14.938Z,2.70
2019-01-17T16:07:43.490Z,2.70
2019-01-17T16:10:14.409Z,2.50
2019-01-17T16:12:43.035Z,2.50
2019-01-17T16:15:14.256Z,2.60
2019-01-17T16:17:42.737Z,2.70
2019-01-17T16:20:13.618Z,2.60
2019-01-17T16:22:42.295Z,2.60
2019-01-17T16:25:12.821Z,2.60
2019-01-17T16:27:41.923Z,2.60
2019-01-17T16:30:16.393Z,2.60
2019-01-17T16:32:45.013Z,2.60
2019-01-17T16:35:13.598Z,2.60
2019-01-17T16:37:42.290Z,2.50
2019-01-17T16:40:12.134Z,2.60
2019-01-17T16:42:40.698Z,2.50
2019-01-17T16:45:14.560Z,2.60
2019-01-17T16:47:43.113Z,2.60
2019-01-17T16:50:17.699Z,2.50
2019-01-17T16:52:46.322Z,2.50
2019-01-17T16:55:15.365Z,2.50
2019-01-17T16:57:48.941Z,2.50
2019-01-17T17:00:20.303Z,2.50
2019-01-17T17:02:48.911Z,2.60
2019-01-17T17:05:17.670Z,2.50
2019-01-17T17:07:46.213Z,2.60
2019-01-17T17:10:15.476Z,2.60
2019-01-17T17:12:44.162Z,2.60
2019-01-17T17:15:13.467Z,2.60
2019-01-17T17:17:42.074Z,2.60
2019-01-17T17:20:16.193Z,2.70
2019-01-17T17:22:44.829Z,2.60
2019-01-17T17:25:14.457Z,2.70
2019-01-17T17:27:42.959Z,2.70
2019-01-17T17:30:19.789Z,2.90
2019-01-17T17:32:48.504Z,2.90
2019-01-17T17:35:17.058Z,2.90
2019-01-17T17:37:45.630Z,2.90
2019-01-17T17:40:22.672Z,2.90
2019-01-17T17:42:51.258Z,2.80
2019-01-17T17:45:19.883Z,2.80
2019-01-17T17:47:49.904Z,3.00
2019-01-17T17:50:20.089Z,3.00
2019-01-17T17:52:48.662Z,2.90
2019-01-17T17:55:18.150Z,2.90
2019-01-17T17:57:46.694Z,3.00
2019-01-17T18:00:25.121Z,2.90
2019-01-17T18:02:54.098Z,3.00
2019-01-17T18:05:22.992Z,3.00
2019-01-17T18:07:51.600Z,2.90
2019-01-17T18:10:20.159Z,2.90
2019-01-17T18:12:48.822Z,2.80
2019-01-17T18:15:19.296Z,2.80
2019-01-17T18:17:48.176Z,2.80
2019-01-17T18:20:17.524Z,2.80
2019-01-17T18:22:46.107Z,2.80
2019-01-17T18:25:14.744Z,2.70
2019-01-17T18:27:43.253Z,2.60
2019-01-17T18:30:27.707Z,2.60
2019-01-17T18:32:56.408Z,2.50
2019-01-17T18:35:24.956Z,2.50
2019-01-17T18:37:53.462Z,2.40
2019-01-17T18:40:22.680Z,2.30
2019-01-17T18:42:51.306Z,2.30
2019-01-17T18:45:22.764Z,2.20
2019-01-17T18:47:51.413Z,2.20
2019-01-17T18:50:28.438Z,2.30
2019-01-17T18:52:56.991Z,2.20
2019-01-17T18:55:25.493Z,2.20
2019-01-17T18:57:54.051Z,2.30
2019-01-17T19:00:26.106Z,2.40
2019-01-17T19:02:54.794Z,2.30
2019-01-17T19:05:23.441Z,2.30
2019-01-17T19:07:52.071Z,2.20
2019-01-17T19:10:21.393Z,2.30
2019-01-17T19:12:50.090Z,2.20
2019-01-17T19:15:21.219Z,2.20
2019-01-17T19:17:49.772Z,2.10
2019-01-17T19:20:20.299Z,2.20
2019-01-17T19:22:49.129Z,2.10
2019-01-17T19:25:17.874Z,2.10
2019-01-17T19:27:46.429Z,2.00
2019-01-17T19:30:17.957Z,2.00
2019-01-17T19:32:46.589Z,2.00
2019-01-17T19:35:15.308Z,2.00
2019-01-17T19:37:44.002Z,2.10
2019-01-17T19:40:15.605Z,2.20
2019-01-17T19:42:44.317Z,2.20
2019-01-17T19:45:14.557Z,2.20
2019-01-17T19:47:43.273Z,2.10
2019-01-17T19:50:20.221Z,2.10
2019-01-17T19:52:48.857Z,2.10
2019-01-17T19:55:17.569Z,2.10
2019-01-17T19:57:46.127Z,2.00
2019-01-17T20:00:17.717Z,1.90
2019-01-17T20:02:46.337Z,1.90
2019-01-17T20:05:17.556Z,1.80
2019-01-17T20:07:46.274Z,1.80
2019-01-17T20:10:17.585Z,1.80
2019-01-17T20:12:46.072Z,1.80
2019-01-17T20:15:14.789Z,1.80
2019-01-17T20:17:43.424Z,1.90
2019-01-17T20:20:17.092Z,1.90
2019-01-17T20:22:45.929Z,1.80
2019-01-17T20:25:14.921Z,1.80
2019-01-17T20:27:43.492Z,1.80
2019-01-17T20:30:20.319Z,1.90
2019-01-17T20:32:49.150Z,1.90
2019-01-17T20:35:17.877Z,2.00
2019-01-17T20:37:46.522Z,2.00
2019-01-17T20:40:20.337Z,2.00
2019-01-17T20:42:50.524Z,1.90
2019-01-17T20:45:19.090Z,1.90
2019-01-17T20:47:47.921Z,1.90
2019-01-17T20:50:22.370Z,2.00
2019-01-17T20:52:52.031Z,1.90
2019-01-17T20:55:20.663Z,1.80
2019-01-17T20:57:50.470Z,1.80
2019-01-17T21:00:33.958Z,1.70
2019-01-17T21:03:02.675Z,1.70
2019-01-17T21:05:31.233Z,1.80
2019-01-17T21:08:01.169Z,1.80
2019-01-17T21:10:29.717Z,1.80
2019-01-17T21:12:58.277Z,1.70
2019-01-17T21:15:26.850Z,1.70
2019-01-17T21:17:55.418Z,1.60
2019-01-17T21:20:23.901Z,1.60
2019-01-17T21:22:52.468Z,1.50
2019-01-17T21:25:21.398Z,1.50
2019-01-17T21:27:49.973Z,1.50
2019-01-17T21:30:23.530Z,1.50
2019-01-17T21:32:52.165Z,1.50
2019-01-17T21:35:20.648Z,1.60
2019-01-17T21:37:49.229Z,1.50
2019-01-17T21:40:25.139Z,1.50
2019-01-17T21:42:53.793Z,1.50
2019-01-17T21:45:22.824Z,1.40
2019-01-17T21:47:51.407Z,1.40
2019-01-17T21:50:25.435Z,1.50
2019-01-17T21:52:54.114Z,1.40
2019-01-17T21:55:22.671Z,1.30
2019-01-17T21:57:51.253Z,1.30
2019-01-17T22:00:22.687Z,1.40
2019-01-17T22:02:51.335Z,1.30
2019-01-17T22:05:20.034Z,1.40
2019-01-17T22:07:48.653Z,1.30
2019-01-17T22:10:18.766Z,1.40
2019-01-17T22:12:47.484Z,1.50
2019-01-17T22:15:18.760Z,1.50
2019-01-17T22:17:47.315Z,1.60
2019-01-17T22:20:16.541Z,1.60
2019-01-17T22:22:45.160Z,1.60
2019-01-17T22:25:16.001Z,1.70
2019-01-17T22:27:44.634Z,1.70
2019-01-17T22:30:18.717Z,1.70
2019-01-17T22:32:47.313Z,1.60
2019-01-17T22:35:15.957Z,1.50
2019-01-17T22:37:44.593Z,1.50
2019-01-17T22:40:15.105Z,1.50
2019-01-17T22:42:43.597Z,1.50
2019-01-17T22:45:18.323Z,1.50
2019-01-17T22:47:46.884Z,1.50
2019-01-17T22:50:17.511Z,1.60
2019-01-17T22:52:46.410Z,1.50
2019-01-17T22:55:15.058Z,1.50
2019-01-17T22:57:43.621Z,1.50
2019-01-17T23:00:34.537Z,1.50
2019-01-17T23:03:03.245Z,1.50
2019-01-17T23:05:31.821Z,1.40
2019-01-17T23:08:00.301Z,1.30
2019-01-17T23:10:28.881Z,1.30
2019-01-17T23:12:57.437Z,1.30
2019-01-17T23:15:25.929Z,1.30
2019-01-17T23:17:54.509Z,1.20
2019-01-17T23:20:23.064Z,1.10
2019-01-17T23:22:51.704Z,1.20
2019-01-17T23:25:20.182Z,1.20
2019-01-17T23:31:12.561Z,1.20
2019-01-17T23:33:41.122Z,1.30
2019-01-17T23:36:09.642Z,1.20
2019-01-17T23:38:38.131Z,1.20
2019-01-17T23:41:06.680Z,1.20
2019-01-17T23:43:35.186Z,1.20
2019-01-17T23:46:03.842Z,1.10
2019-01-17T23:48:32.422Z,1.10
2019-01-17T23:51:00.981Z,1.00
2019-01-17T23:53:29.565Z,1.10
2019-01-17T23:55:58.117Z,1.20
2019-01-17T23:58:26.698Z,1.20
